createdAt,value
2022-11-24T00:01:15.654Z,100288.44
2022-11-24T00:03:44.380Z,100258.22
2022-11-24T00:06:14.029Z,100278.34
2022-11-24T00:08:43.854Z,100270.78
2022-11-24T00:11:17.001Z,100280.84
2022-11-24T00:13:45.032Z,100282.56
2022-11-24T00:16:13.835Z,100285.91
2022-11-24T00:18:42.514Z,100282.13
2022-11-24T00:21:10.392Z,100284.66
2022-11-24T00:23:37.761Z,100271.41
2022-11-24T00:26:23.415Z,100288.56
2022-11-24T00:28:53.741Z,100287.31
2022-11-24T00:31:33.020Z,100298.81
2022-11-24T00:34:02.653Z,100298.47
2022-11-24T00:36:32.119Z,100296.28
2022-11-24T00:39:01.787Z,100296.91
2022-11-24T00:41:30.071Z,100296.28
2022-11-24T00:43:58.370Z,100306.66
2022-11-24T00:46:26.415Z,100311.09
2022-11-24T00:48:54.286Z,100306.03
2022-11-24T00:51:24.148Z,100295.34
2022-11-24T00:53:51.612Z,100321.78
2022-11-24T00:56:18.730Z,100323.38
2022-11-24T00:58:45.879Z,100320.69
2022-11-24T01:01:17.138Z,100322.75
2022-11-24T01:03:46.818Z,100319.28
2022-11-24T01:06:15.295Z,100326.34
2022-11-24T01:08:43.421Z,100315.19
2022-11-24T01:11:54.551Z,100310.78
2022-11-24T01:14:23.588Z,100326.03
2022-11-24T01:16:50.989Z,100316.28
2022-11-24T01:19:18.318Z,100319.91
2022-11-24T01:21:46.133Z,100326.50
2022-11-24T01:24:13.963Z,100331.88
2022-11-24T01:26:42.198Z,100330.44
2022-11-24T01:29:11.938Z,100322.56
2022-11-24T01:31:39.606Z,100327.13
2022-11-24T01:34:07.239Z,100332.50
2022-11-24T01:36:35.729Z,100327.28
2022-11-24T01:39:02.916Z,100337.22
2022-11-24T01:41:30.212Z,100330.59
2022-11-24T01:43:57.943Z,100329.03
2022-11-24T01:46:46.361Z,100337.53
2022-11-24T01:49:20.181Z,100328.56
2022-11-24T01:51:55.644Z,100336.25
2022-11-24T01:54:28.078Z,100333.50
2022-11-24T01:57:00.526Z,100331.28
2022-11-24T01:59:28.374Z,100335.00
2022-11-24T02:01:57.114Z,100341.41
2022-11-24T02:04:29.710Z,100337.94
2022-11-24T02:06:59.863Z,100345.94
2022-11-24T02:09:33.842Z,100360.06
2022-11-24T02:12:02.645Z,100363.38
2022-11-24T02:14:30.303Z,100368.28
2022-11-24T02:16:57.772Z,100363.53
2022-11-24T02:19:40.388Z,100369.13
2022-11-24T02:22:26.802Z,100370.97
2022-11-24T02:25:01.933Z,100371.47
2022-11-24T02:27:29.417Z,100373.31
2022-11-24T02:29:56.558Z,100377.91
2022-11-24T02:32:23.893Z,100373.88
2022-11-24T02:35:01.194Z,100376.66
2022-11-24T02:37:28.276Z,100380.19
2022-11-24T02:39:55.552Z,100378.88
2022-11-24T02:42:22.964Z,100379.53
2022-11-24T02:44:54.966Z,100383.91
2022-11-24T02:47:22.197Z,100392.31
2022-11-24T02:49:49.318Z,100397.00
2022-11-24T02:52:16.727Z,100402.97
2022-11-24T02:54:44.363Z,100403.13
2022-11-24T02:57:12.068Z,100407.41
2022-11-24T02:59:39.134Z,100416.41
2022-11-24T03:02:06.577Z,100404.19
2022-11-24T03:04:33.997Z,100422.75
2022-11-24T03:07:01.435Z,100416.03
2022-11-24T03:09:28.773Z,100418.81
2022-11-24T03:11:56.647Z,100419.72
2022-11-24T03:14:23.739Z,100408.16
2022-11-24T03:16:51.040Z,100417.94
2022-11-24T03:19:18.231Z,100421.16
2022-11-24T03:21:45.551Z,100410.13
2022-11-24T03:24:12.684Z,100419.84
2022-11-24T03:26:39.944Z,100417.66
2022-11-24T03:29:07.757Z,100417.13
2022-11-24T03:31:35.284Z,100433.28
2022-11-24T03:34:02.647Z,100430.75
2022-11-24T03:36:29.790Z,100441.13
2022-11-24T03:38:57.219Z,100429.41
2022-11-24T03:41:24.614Z,100441.38
2022-11-24T03:43:51.985Z,100439.63
2022-11-24T03:46:19.403Z,100441.28
2022-11-24T03:48:46.604Z,100452.59
2022-11-24T03:51:13.676Z,100447.84
2022-11-24T03:53:41.080Z,100446.00
2022-11-24T03:56:08.247Z,100452.00
2022-11-24T03:58:35.568Z,100452.44
2022-11-24T04:01:02.735Z,100451.22
2022-11-24T04:03:30.110Z,100459.97
2022-11-24T04:05:57.274Z,100457.66
2022-11-24T04:08:24.758Z,100463.13
2022-11-24T04:10:54.181Z,100467.44
2022-11-24T04:13:23.302Z,100477.19
2022-11-24T04:15:50.524Z,100476.91
2022-11-24T04:18:18.829Z,100449.28
2022-11-24T04:20:46.340Z,100482.22
2022-11-24T04:23:13.704Z,100485.38
2022-11-24T04:25:42.592Z,100484.50
2022-11-24T04:28:11.473Z,100493.88
2022-11-24T04:30:40.401Z,100500.38
2022-11-24T04:33:07.936Z,100501.53
2022-11-24T04:35:35.885Z,100512.03
2022-11-24T04:38:03.495Z,100501.69
2022-11-24T04:40:30.660Z,100514.09
2022-11-24T04:42:57.724Z,100517.63
2022-11-24T04:45:25.302Z,100517.69
2022-11-24T04:47:52.527Z,100526.38
2022-11-24T04:50:19.791Z,100528.44
2022-11-24T04:52:47.116Z,100533.06
2022-11-24T04:55:14.389Z,100537.44
2022-11-24T04:57:41.626Z,100536.69
2022-11-24T05:00:09.436Z,100538.84
2022-11-24T05:02:37.499Z,100548.66
2022-11-24T05:05:06.173Z,100550.59
2022-11-24T05:07:36.578Z,100554.75
2022-11-24T05:10:22.261Z,100545.16
2022-11-24T05:12:57.447Z,100539.75
2022-11-24T05:15:24.827Z,100552.06
2022-11-24T05:17:52.687Z,100552.84
2022-11-24T05:20:20.060Z,100558.69
2022-11-24T05:22:47.584Z,100562.44
2022-11-24T05:25:15.643Z,100586.47
2022-11-24T05:27:42.826Z,100589.38
2022-11-24T05:30:10.653Z,100584.78
2022-11-24T05:32:38.767Z,100584.13
2022-11-24T05:35:06.968Z,100588.09
2022-11-24T05:37:34.058Z,100587.59
2022-11-24T05:40:01.143Z,100591.22
2022-11-24T05:42:46.231Z,100601.34
2022-11-24T05:45:17.361Z,100601.25
2022-11-24T05:47:45.771Z,100597.44
2022-11-24T05:50:15.306Z,100587.59
2022-11-24T05:52:42.701Z,100604.41
2022-11-24T05:55:11.296Z,100614.03
2022-11-24T05:57:39.123Z,100606.34
2022-11-24T06:00:08.995Z,100614.81
2022-11-24T06:02:42.544Z,100615.53
2022-11-24T06:05:10.069Z,100624.22
2022-11-24T06:07:37.957Z,100604.22
2022-11-24T06:10:05.810Z,100624.69
2022-11-24T06:12:33.275Z,100640.94
2022-11-24T06:15:00.770Z,100636.00
2022-11-24T06:17:28.410Z,100641.31
2022-11-24T06:19:55.806Z,100653.28
2022-11-24T06:22:23.238Z,100645.91
2022-11-24T06:24:51.287Z,100653.63
2022-11-24T06:27:19.449Z,100655.75
2022-11-24T06:29:46.709Z,100669.50
2022-11-24T06:32:14.116Z,100670.75
2022-11-24T06:34:41.657Z,100671.56
2022-11-24T06:37:10.002Z,100669.09
2022-11-24T06:39:37.579Z,100660.50
2022-11-24T06:42:04.736Z,100679.91
2022-11-24T06:44:32.172Z,100679.91
2022-11-24T06:46:59.961Z,100688.28
2022-11-24T06:49:27.350Z,100700.63
2022-11-24T06:51:55.309Z,100691.69
2022-11-24T06:54:22.737Z,100703.22
2022-11-24T06:56:49.945Z,100679.22
2022-11-24T06:59:19.348Z,100695.19
2022-11-24T07:01:47.350Z,100697.69
2022-11-24T07:04:15.444Z,100702.44
2022-11-24T07:06:44.124Z,100696.09
2022-11-24T07:09:13.110Z,100701.19
2022-11-24T07:11:41.043Z,100711.69
2022-11-24T07:14:08.811Z,100698.13
2022-11-24T07:16:36.683Z,100701.53
2022-11-24T07:19:04.026Z,100715.66
2022-11-24T07:21:31.413Z,100712.50
2022-11-24T07:23:58.891Z,100721.91
2022-11-24T07:26:26.941Z,100705.28
2022-11-24T07:28:54.535Z,100695.19
2022-11-24T07:31:25.428Z,100704.25
2022-11-24T07:33:55.122Z,100710.81
2022-11-24T07:36:23.704Z,100703.47
2022-11-24T07:38:51.104Z,100704.00
2022-11-24T07:41:20.237Z,100683.19
2022-11-24T07:43:48.506Z,100687.81
2022-11-24T07:46:17.866Z,100708.56
2022-11-24T07:48:46.218Z,100709.22
2022-11-24T07:51:13.556Z,100708.50
2022-11-24T07:53:40.758Z,100702.28
2022-11-24T07:56:10.068Z,100698.84
2022-11-24T07:58:38.302Z,100697.31
2022-11-24T08:01:11.629Z,100699.94
2022-11-24T08:03:39.343Z,100697.78
2022-11-24T08:06:23.569Z,100713.59
2022-11-24T08:08:53.633Z,100699.59
2022-11-24T08:11:20.802Z,100709.28
2022-11-24T08:13:48.285Z,100706.69
2022-11-24T08:16:18.089Z,100708.50
2022-11-24T08:18:51.252Z,100712.59
2022-11-24T08:21:18.583Z,100722.50
2022-11-24T08:23:46.145Z,100721.09
2022-11-24T08:26:16.452Z,100720.06
2022-11-24T08:28:44.585Z,100723.56
2022-11-24T08:31:14.867Z,100727.25
2022-11-24T08:33:42.972Z,100720.22
2022-11-24T08:36:13.427Z,100721.91
2022-11-24T08:38:41.441Z,100715.59
2022-11-24T08:41:11.501Z,100739.19
2022-11-24T08:43:39.007Z,100728.97
2022-11-24T08:46:10.215Z,100734.25
2022-11-24T08:48:38.206Z,100732.34
2022-11-24T08:51:11.360Z,100738.09
2022-11-24T08:53:39.304Z,100735.53
2022-11-24T08:56:08.052Z,100741.56
2022-11-24T08:58:35.656Z,100753.16
2022-11-24T09:01:10.523Z,100745.03
2022-11-24T09:03:43.393Z,100741.41
2022-11-24T09:06:14.311Z,100735.81
2022-11-24T09:08:42.292Z,100733.59
2022-11-24T09:11:12.405Z,100734.63
2022-11-24T09:13:41.233Z,100715.25
2022-11-24T09:16:11.780Z,100746.72
2022-11-24T09:18:39.954Z,100743.53
2022-11-24T09:21:10.640Z,100743.19
2022-11-24T09:23:38.303Z,100727.94
2022-11-24T09:26:16.880Z,100740.53
2022-11-24T09:28:44.787Z,100727.81
2022-11-24T09:31:14.323Z,100736.84
2022-11-24T09:33:42.189Z,100730.38
2022-11-24T09:36:09.987Z,100721.44
2022-11-24T09:38:37.624Z,100724.84
2022-11-24T09:41:40.446Z,100719.56
2022-11-24T09:44:09.532Z,100716.56
2022-11-24T09:47:02.502Z,100714.59
2022-11-24T09:49:38.419Z,100717.47
2022-11-24T09:52:14.361Z,100723.41
2022-11-24T09:54:51.817Z,100729.50
2022-11-24T09:57:23.890Z,100729.03
2022-11-24T09:59:51.990Z,100729.94
2022-11-24T10:02:19.761Z,100746.22
2022-11-24T10:04:47.480Z,100747.13
2022-11-24T10:07:29.684Z,100740.25
2022-11-24T10:09:56.946Z,100729.84
2022-11-24T10:12:51.968Z,100734.66
2022-11-24T10:15:56.544Z,100726.78
2022-11-24T10:18:50.456Z,100736.84
2022-11-24T10:21:30.341Z,100731.94
2022-11-24T10:24:12.919Z,100725.81
2022-11-24T10:26:47.341Z,100727.03
2022-11-24T10:29:23.978Z,100728.00
2022-11-24T10:31:58.099Z,100733.84
2022-11-24T10:34:59.266Z,100679.97
2022-11-24T10:37:35.617Z,100735.44
2022-11-24T10:40:40.953Z,100741.28
2022-11-24T10:43:10.765Z,100736.84
2022-11-24T10:45:39.745Z,100722.56
2022-11-24T10:48:16.783Z,100726.09
2022-11-24T10:50:44.419Z,100676.22
2022-11-24T10:53:27.177Z,100730.38
2022-11-24T10:55:57.454Z,100718.94
2022-11-24T10:58:37.602Z,100722.88
2022-11-24T11:01:33.329Z,100714.84
2022-11-24T11:04:02.102Z,100713.59
2022-11-24T11:06:31.634Z,100719.16
2022-11-24T11:09:08.339Z,100722.31
2022-11-24T11:11:36.940Z,100718.38
2022-11-24T11:14:07.222Z,100721.00
2022-11-24T11:16:37.356Z,100717.06
2022-11-24T11:19:48.015Z,100711.97
2022-11-24T11:22:22.090Z,100710.81
2022-11-24T11:25:18.847Z,100688.84
2022-11-24T11:27:46.283Z,100715.13
2022-11-24T11:36:14.907Z,100706.66
2022-11-24T11:38:44.420Z,100715.06
2022-11-24T11:41:20.908Z,100723.38
2022-11-24T11:43:53.632Z,100721.53
2022-11-24T11:46:21.496Z,100727.19
2022-11-24T11:48:48.957Z,100703.19
2022-11-24T11:51:53.943Z,100722.63
2022-11-24T11:54:43.176Z,100727.50
2022-11-24T11:57:43.677Z,100711.88
2022-11-24T12:00:20.643Z,100712.31
2022-11-24T12:03:12.316Z,100715.44
2022-11-24T12:06:06.358Z,100720.19
2022-11-24T12:09:18.119Z,100726.81
2022-11-24T12:11:43.581Z,100725.53
2022-11-24T12:14:23.176Z,100733.16
2022-11-24T12:17:18.269Z,100728.69
2022-11-24T12:19:54.445Z,100736.59
2022-11-24T12:22:50.054Z,100701.84
2022-11-24T12:25:23.647Z,100721.09
2022-11-24T12:28:14.422Z,100721.91
2022-11-24T12:30:51.154Z,100723.63
2022-11-24T12:33:34.773Z,100730.22
2022-11-24T12:36:27.218Z,100736.22
2022-11-24T12:39:05.952Z,100734.97
2022-11-24T12:41:55.979Z,100713.25
2022-11-24T12:44:42.642Z,100716.09
2022-11-24T12:47:22.121Z,100725.50
2022-11-24T12:49:55.852Z,100725.50
2022-11-24T12:52:28.875Z,100725.66
2022-11-24T12:54:57.324Z,100729.41
2022-11-24T12:57:34.291Z,100732.44
2022-11-24T13:00:16.402Z,100729.94
2022-11-24T13:03:26.029Z,100728.34
2022-11-24T13:06:01.737Z,100718.75
2022-11-24T13:08:30.020Z,100736.84
2022-11-24T13:11:23.072Z,100744.22
2022-11-24T13:14:18.028Z,100739.03
2022-11-24T13:17:28.185Z,100736.28
2022-11-24T13:19:48.542Z,100753.22
2022-11-24T13:22:23.419Z,100755.03
2022-11-24T13:25:14.922Z,100756.91
2022-11-24T13:27:45.528Z,100758.16
2022-11-24T13:30:34.997Z,100750.84
2022-11-24T13:33:27.307Z,100755.38
2022-11-24T13:36:04.470Z,100756.81
2022-11-24T13:38:51.548Z,100750.75
2022-11-24T13:41:35.352Z,100749.84
2022-11-24T13:44:15.036Z,100759.59
2022-11-24T13:47:05.326Z,100761.78
2022-11-24T13:49:46.677Z,100751.81
2022-11-24T13:52:37.019Z,100764.56
2022-11-24T13:55:23.648Z,100742.53
2022-11-24T13:57:59.823Z,100768.63
2022-11-24T14:00:32.252Z,100751.03
2022-11-24T14:03:16.051Z,100774.25
2022-11-24T14:05:48.497Z,100781.50
2022-11-24T14:08:30.102Z,100784.59
2022-11-24T14:10:59.297Z,100777.94
2022-11-24T14:13:28.701Z,100793.75
2022-11-24T14:16:02.596Z,100771.09
2022-11-24T14:18:31.590Z,100783.81
2022-11-24T14:21:01.393Z,100778.28
2022-11-24T14:23:28.727Z,100777.28
2022-11-24T14:25:56.118Z,100791.44
2022-11-24T14:28:26.917Z,100791.13
2022-11-24T14:31:23.074Z,100791.97
2022-11-24T14:33:51.496Z,100797.75
2022-11-24T14:36:19.245Z,100788.47
2022-11-24T14:38:47.543Z,100788.72
2022-11-24T14:41:23.537Z,100798.34
2022-11-24T14:43:50.858Z,100796.75
2022-11-24T14:46:20.062Z,100794.03
2022-11-24T14:48:53.549Z,100800.16
2022-11-24T14:51:27.157Z,100803.09
2022-11-24T14:53:58.701Z,100806.06
2022-11-24T14:56:30.666Z,100808.56
2022-11-24T14:58:59.330Z,100812.19
2022-11-24T15:01:34.861Z,100808.81
2022-11-24T15:04:26.454Z,100808.94
2022-11-24T15:07:36.997Z,100791.28
2022-11-24T15:10:07.294Z,100804.19
2022-11-24T15:12:43.502Z,100799.09
2022-11-24T15:15:14.263Z,100811.34
2022-11-24T15:17:53.894Z,100805.09
2022-11-24T15:20:37.559Z,100815.75
2022-11-24T15:23:13.889Z,100828.66
2022-11-24T15:26:00.215Z,100814.41
2022-11-24T15:28:27.981Z,100801.84
2022-11-24T15:31:10.498Z,100842.47
2022-11-24T15:33:39.067Z,100835.69
2022-11-24T15:36:06.972Z,100811.16
2022-11-24T15:38:34.159Z,100834.66
2022-11-24T15:41:02.231Z,100844.16
2022-11-24T15:43:35.070Z,100807.84
2022-11-24T15:46:03.848Z,100812.72
2022-11-24T15:48:31.665Z,100844.28
2022-11-24T15:51:02.136Z,100835.00
2022-11-24T15:53:40.118Z,100839.66
2022-11-24T15:56:12.814Z,100843.97
2022-11-24T15:58:40.236Z,100843.63
2022-11-24T16:01:07.490Z,100834.53
2022-11-24T16:03:50.423Z,100838.63
2022-11-24T16:06:24.780Z,100842.47
2022-11-24T16:08:54.011Z,100846.09
2022-11-24T16:11:21.897Z,100836.56
2022-11-24T16:13:53.018Z,100842.69
2022-11-24T16:16:22.370Z,100844.63
2022-11-24T16:18:49.944Z,100839.31
2022-11-24T16:21:17.763Z,100848.34
2022-11-24T16:23:45.797Z,100832.31
2022-11-24T16:26:13.355Z,100832.66
2022-11-24T16:28:40.963Z,100844.84
2022-11-24T16:31:08.899Z,100849.72
2022-11-24T16:33:38.754Z,100869.53
2022-11-24T16:36:06.612Z,100840.66
2022-11-24T16:38:35.667Z,100866.25
2022-11-24T16:41:02.915Z,100879.06
2022-11-24T16:43:30.694Z,100845.66
2022-11-24T16:46:19.821Z,100880.16
2022-11-24T16:48:52.026Z,100841.47
2022-11-24T16:51:22.713Z,100863.88
2022-11-24T16:54:01.322Z,100871.25
2022-11-24T16:56:29.242Z,100874.63
2022-11-24T16:58:57.009Z,100855.06
2022-11-24T17:01:26.289Z,100874.41
2022-11-24T17:03:53.655Z,100882.22
2022-11-24T17:06:21.343Z,100861.06
2022-11-24T17:08:49.039Z,100874.06
2022-11-24T17:11:22.238Z,100883.91
2022-11-24T17:13:50.462Z,100862.75
2022-11-24T17:16:20.780Z,100896.03
2022-11-24T17:18:48.558Z,100890.72
2022-11-24T17:21:21.454Z,100860.03
2022-11-24T17:23:52.715Z,100885.06
2022-11-24T17:26:20.623Z,100880.75
2022-11-24T17:28:48.177Z,100864.44
2022-11-24T17:31:23.492Z,100886.75
2022-11-24T17:33:53.363Z,100892.41
2022-11-24T17:36:21.231Z,100880.88
2022-11-24T17:38:49.859Z,100891.19
2022-11-24T17:41:18.597Z,100893.88
2022-11-24T17:43:50.690Z,100901.13
2022-11-24T17:46:18.786Z,100889.78
2022-11-24T17:48:47.168Z,100898.75
2022-11-24T17:51:17.105Z,100910.19
2022-11-24T17:53:46.993Z,100894.56
2022-11-24T17:56:16.773Z,100893.88
2022-11-24T17:58:44.436Z,100881.06
2022-11-24T18:01:13.039Z,100898.19
2022-11-24T18:03:41.560Z,100901.69
2022-11-24T18:06:10.545Z,100902.03
2022-11-24T18:08:39.986Z,100886.63
2022-11-24T18:11:09.622Z,100901.13
2022-11-24T18:16:28.160Z,100888.00
2022-11-24T18:19:08.318Z,100897.72
2022-11-24T18:21:41.471Z,100878.38
2022-11-24T18:24:10.581Z,100849.13
2022-11-24T18:26:38.990Z,100889.13
2022-11-24T18:29:06.382Z,100859.97
2022-11-24T18:31:35.832Z,100892.06
2022-11-24T18:34:05.710Z,100889.28
2022-11-24T18:36:34.698Z,100892.50
2022-11-24T18:39:07.285Z,100875.34
2022-11-24T18:41:34.557Z,100888.44
2022-11-24T18:44:03.235Z,100898.38
2022-11-24T18:46:30.575Z,100891.97
2022-11-24T18:48:57.901Z,100907.00
2022-11-24T18:51:25.383Z,100912.56
2022-11-24T18:54:02.277Z,100895.81
2022-11-24T18:56:29.649Z,100898.53
2022-11-24T18:58:57.600Z,100914.91
2022-11-24T19:01:27.867Z,100905.41
2022-11-24T19:04:02.068Z,100924.44
2022-11-24T19:06:33.566Z,100930.00
2022-11-24T19:09:05.334Z,100917.06
2022-11-24T19:11:37.541Z,100927.16
2022-11-24T19:14:07.534Z,100930.53
2022-11-24T19:16:35.947Z,100929.84
2022-11-24T19:19:04.198Z,100934.97
2022-11-24T19:21:37.432Z,100927.38
2022-11-24T19:24:06.131Z,100933.47
2022-11-24T19:26:37.604Z,100949.44
2022-11-24T19:29:06.642Z,100946.25
2022-11-24T19:31:34.653Z,100944.44
2022-11-24T19:34:03.173Z,100947.53
2022-11-24T19:36:30.868Z,100954.53
2022-11-24T19:38:59.783Z,100947.19
2022-11-24T19:41:29.990Z,100970.25
2022-11-24T19:43:58.857Z,100965.53
2022-11-24T19:46:29.737Z,100967.78
2022-11-24T19:49:01.091Z,100949.44
2022-11-24T19:51:37.013Z,100959.41
2022-11-24T19:54:07.013Z,100959.75
2022-11-24T19:56:36.801Z,100958.72
2022-11-24T19:59:06.248Z,100961.88
2022-11-24T20:01:37.574Z,100944.72
2022-11-24T20:04:07.613Z,100969.69
2022-11-24T20:06:38.381Z,100967.41
2022-11-24T20:09:08.733Z,100979.06
2022-11-24T20:11:40.286Z,100969.34
2022-11-24T20:14:11.771Z,100971.59
2022-11-24T20:16:39.626Z,100977.84
2022-11-24T20:19:11.529Z,100980.50
2022-11-24T20:21:40.096Z,100989.34
2022-11-24T20:24:20.893Z,100983.25
2022-11-24T20:26:54.764Z,100993.81
2022-11-24T20:29:22.789Z,100988.84
2022-11-24T20:31:52.693Z,100989.41
2022-11-24T20:34:21.886Z,100956.88
2022-11-24T20:36:49.800Z,100981.94
2022-11-24T20:39:20.749Z,100987.50
2022-11-24T20:41:48.635Z,100985.00
2022-11-24T20:44:18.336Z,100981.28
2022-11-24T20:46:46.937Z,100975.81
2022-11-24T20:49:17.541Z,100980.78
2022-11-24T20:51:47.107Z,100974.44
2022-11-24T20:54:19.107Z,100982.38
2022-11-24T20:56:47.221Z,100985.56
2022-11-24T20:59:21.691Z,100980.44
2022-11-24T21:01:50.799Z,101001.97
2022-11-24T21:04:21.912Z,101005.03
2022-11-24T21:06:49.526Z,101001.72
2022-11-24T21:09:17.391Z,100983.50
2022-11-24T21:11:45.798Z,100998.66
2022-11-24T21:14:13.127Z,100999.47
2022-11-24T21:16:42.317Z,101008.41
2022-11-24T21:19:12.633Z,100976.16
2022-11-24T21:21:42.935Z,100995.44
2022-11-24T21:24:15.795Z,100976.63
2022-11-24T21:26:44.187Z,100997.66
2022-11-24T21:29:13.241Z,101004.78
2022-11-24T21:31:41.291Z,100999.94
2022-11-24T21:34:09.104Z,101005.31
2022-11-24T21:36:40.168Z,101010.00
2022-11-24T21:39:07.716Z,101016.22
2022-11-24T21:41:35.218Z,101026.53
2022-11-24T21:44:02.543Z,101017.47
2022-11-24T21:46:38.951Z,101028.59
2022-11-24T21:49:08.413Z,101008.00
2022-11-24T21:51:36.245Z,101018.53
2022-11-24T21:54:03.408Z,101029.75
2022-11-24T21:56:30.722Z,101023.75
2022-11-24T21:58:58.774Z,101016.03
2022-11-24T22:01:28.281Z,101024.53
2022-11-24T22:03:55.997Z,101025.13
2022-11-24T22:06:23.646Z,101030.31
2022-11-24T22:08:51.084Z,101039.69
2022-11-24T22:11:24.203Z,101046.47
2022-11-24T22:13:52.527Z,101036.41
2022-11-24T22:16:24.379Z,101043.66
2022-11-24T22:18:52.434Z,101047.59
2022-11-24T22:21:30.152Z,101045.22
2022-11-24T22:23:57.834Z,101051.78
2022-11-24T22:26:26.367Z,101051.50
2022-11-24T22:28:55.206Z,101051.66
2022-11-24T22:31:27.732Z,101064.22
2022-11-24T22:33:56.414Z,101070.34
2022-11-24T22:36:26.355Z,101064.44
2022-11-24T22:39:04.840Z,101049.84
2022-11-24T22:41:34.738Z,101062.28
2022-11-24T22:44:05.196Z,101060.16
2022-11-24T22:46:32.653Z,101070.13
2022-11-24T22:49:01.772Z,101065.75
2022-11-24T22:51:31.563Z,101060.19
2022-11-24T22:54:01.731Z,101060.09
2022-11-24T22:56:29.865Z,101063.25
2022-11-24T22:58:58.379Z,101064.25
2022-11-24T23:01:27.145Z,101071.88
2022-11-24T23:03:54.961Z,101057.94
2022-11-24T23:06:25.153Z,101070.63
2022-11-24T23:08:53.384Z,101060.53
2022-11-24T23:11:29.045Z,101068.34
2022-11-24T23:13:58.250Z,101066.44
2022-11-24T23:16:25.604Z,101062.34
2022-11-24T23:18:54.202Z,101067.47
2022-11-24T23:21:27.052Z,101071.09
2022-11-24T23:23:55.168Z,101071.97
2022-11-24T23:26:25.572Z,101077.19
2022-11-24T23:28:53.016Z,101072.22
2022-11-24T23:31:22.395Z,101074.97
2022-11-24T23:33:49.924Z,101079.25
2022-11-24T23:36:19.516Z,101067.31
2022-11-24T23:38:47.838Z,101086.59
2022-11-24T23:41:18.134Z,101085.91
2022-11-24T23:43:45.805Z,101089.97
2022-11-24T23:46:20.885Z,101084.66
2022-11-24T23:48:49.409Z,101074.78
2022-11-24T23:51:22.249Z,101082.94
2022-11-24T23:53:50.620Z,101086.09
2022-11-24T23:56:20.662Z,101074.34
2022-11-24T23:58:49.042Z,101083.84
